sensor_id;sensor_type;location;lat;lon;timestamp;P1;durP1;ratioP1;P2;durP2;ratioP2
52798;SDS011;38667;42.872;74.622;2023-04-24T00:01:56;16.25;;;3.67;;
52798;SDS011;38667;42.872;74.622;2023-04-24T00:04:22;12.43;;;3.45;;
52798;SDS011;38667;42.872;74.622;2023-04-24T00:06:49;10.95;;;3.80;;
52798;SDS011;38667;42.872;74.622;2023-04-24T00:09:15;10.02;;;3.58;;
52798;SDS011;38667;42.872;74.622;2023-04-24T00:11:41;11.43;;;3.50;;
52798;SDS011;38667;42.872;74.622;2023-04-24T00:14:09;9.90;;;3.63;;
52798;SDS011;38667;42.872;74.622;2023-04-24T00:16:35;11.20;;;3.55;;
52798;SDS011;38667;42.872;74.622;2023-04-24T00:19:02;11.95;;;3.65;;
52798;SDS011;38667;42.872;74.622;2023-04-24T00:21:28;16.08;;;3.53;;
52798;SDS011;38667;42.872;74.622;2023-04-24T00:23:54;11.38;;;3.80;;
52798;SDS011;38667;42.872;74.622;2023-04-24T00:26:21;15.77;;;4.18;;
52798;SDS011;38667;42.872;74.622;2023-04-24T00:28:47;11.07;;;3.50;;
52798;SDS011;38667;42.872;74.622;2023-04-24T00:31:15;9.48;;;4.20;;
52798;SDS011;38667;42.872;74.622;2023-04-24T00:33:41;16.13;;;3.50;;
52798;SDS011;38667;42.872;74.622;2023-04-24T00:36:07;16.95;;;3.67;;
52798;SDS011;38667;42.872;74.622;2023-04-24T00:38:34;13.40;;;3.38;;
52798;SDS011;38667;42.872;74.622;2023-04-24T00:41:00;15.90;;;3.70;;
52798;SDS011;38667;42.872;74.622;2023-04-24T00:43:26;21.70;;;4.43;;
52798;SDS011;38667;42.872;74.622;2023-04-24T00:45:53;14.85;;;3.88;;
52798;SDS011;38667;42.872;74.622;2023-04-24T00:48:21;16.30;;;4.50;;
52798;SDS011;38667;42.872;74.622;2023-04-24T00:50:50;12.00;;;2.90;;
52798;SDS011;38667;42.872;74.622;2023-04-24T00:53:16;33.17;;;6.18;;
52798;SDS011;38667;42.872;74.622;2023-04-24T00:55:42;23.00;;;5.40;;
52798;SDS011;38667;42.872;74.622;2023-04-24T00:58:09;14.30;;;3.83;;
52798;SDS011;38667;42.872;74.622;2023-04-24T01:00:36;48.78;;;6.78;;
52798;SDS011;38667;42.872;74.622;2023-04-24T01:03:02;35.50;;;6.28;;
52798;SDS011;38667;42.872;74.622;2023-04-24T01:05:32;28.10;;;6.97;;
52798;SDS011;38667;42.872;74.622;2023-04-24T01:07:58;31.08;;;6.85;;
52798;SDS011;38667;42.872;74.622;2023-04-24T01:10:26;24.65;;;5.85;;
52798;SDS011;38667;42.872;74.622;2023-04-24T01:12:54;27.30;;;5.20;;
52798;SDS011;38667;42.872;74.622;2023-04-24T01:15:21;51.58;;;7.35;;
52798;SDS011;38667;42.872;74.622;2023-04-24T01:17:48;50.20;;;7.18;;
52798;SDS011;38667;42.872;74.622;2023-04-24T01:20:14;70.80;;;7.55;;
52798;SDS011;38667;42.872;74.622;2023-04-24T01:22:42;62.00;;;8.68;;
52798;SDS011;38667;42.872;74.622;2023-04-24T01:25:09;71.07;;;7.53;;
52798;SDS011;38667;42.872;74.622;2023-04-24T01:27:35;57.85;;;7.28;;
52798;SDS011;38667;42.872;74.622;2023-04-24T01:30:01;47.25;;;7.55;;
52798;SDS011;38667;42.872;74.622;2023-04-24T01:32:28;17.40;;;4.50;;
52798;SDS011;38667;42.872;74.622;2023-04-24T01:34:54;10.60;;;3.47;;
52798;SDS011;38667;42.872;74.622;2023-04-24T01:37:21;9.95;;;2.80;;
52798;SDS011;38667;42.872;74.622;2023-04-24T01:39:49;4.63;;;2.40;;
52798;SDS011;38667;42.872;74.622;2023-04-24T01:42:16;9.27;;;2.78;;
52798;SDS011;38667;42.872;74.622;2023-04-24T01:44:42;12.05;;;3.13;;
52798;SDS011;38667;42.872;74.622;2023-04-24T01:47:08;19.52;;;3.95;;
52798;SDS011;38667;42.872;74.622;2023-04-24T01:49:35;11.82;;;3.47;;
52798;SDS011;38667;42.872;74.622;2023-04-24T01:52:03;6.60;;;3.00;;
52798;SDS011;38667;42.872;74.622;2023-04-24T01:54:30;15.13;;;4.35;;
52798;SDS011;38667;42.872;74.622;2023-04-24T01:56:57;15.77;;;4.40;;
52798;SDS011;38667;42.872;74.622;2023-04-24T01:59:24;14.70;;;4.45;;
52798;SDS011;38667;42.872;74.622;2023-04-24T02:04:53;22.52;;;5.85;;
52798;SDS011;38667;42.872;74.622;2023-04-24T02:18:03;21.60;;;8.00;;
52798;SDS011;38667;42.872;74.622;2023-04-24T02:20:30;24.73;;;10.18;;
52798;SDS011;38667;42.872;74.622;2023-04-24T02:22:56;20.65;;;9.18;;
52798;SDS011;38667;42.872;74.622;2023-04-24T02:25:22;17.08;;;7.78;;
52798;SDS011;38667;42.872;74.622;2023-04-24T02:27:49;17.67;;;7.15;;
52798;SDS011;38667;42.872;74.622;2023-04-24T02:30:15;15.02;;;6.25;;
52798;SDS011;38667;42.872;74.622;2023-04-24T02:32:41;13.52;;;6.25;;
52798;SDS011;38667;42.872;74.622;2023-04-24T02:35:10;18.95;;;6.55;;
52798;SDS011;38667;42.872;74.622;2023-04-24T02:37:36;16.02;;;7.28;;
52798;SDS011;38667;42.872;74.622;2023-04-24T02:40:03;22.98;;;8.80;;
52798;SDS011;38667;42.872;74.622;2023-04-24T02:42:30;28.08;;;9.88;;
52798;SDS011;38667;42.872;74.622;2023-04-24T02:44:56;28.55;;;10.00;;
52798;SDS011;38667;42.872;74.622;2023-04-24T02:47:22;32.58;;;9.65;;
52798;SDS011;38667;42.872;74.622;2023-04-24T02:49:49;23.02;;;10.18;;
52798;SDS011;38667;42.872;74.622;2023-04-24T02:52:16;41.58;;;11.02;;
52798;SDS011;38667;42.872;74.622;2023-04-24T02:54:43;36.17;;;10.80;;
52798;SDS011;38667;42.872;74.622;2023-04-24T02:57:09;22.20;;;9.30;;
52798;SDS011;38667;42.872;74.622;2023-04-24T02:59:35;24.88;;;9.23;;
52798;SDS011;38667;42.872;74.622;2023-04-24T03:02:02;27.02;;;9.30;;
52798;SDS011;38667;42.872;74.622;2023-04-24T03:04:28;26.10;;;8.63;;
52798;SDS011;38667;42.872;74.622;2023-04-24T03:06:54;30.98;;;9.85;;
52798;SDS011;38667;42.872;74.622;2023-04-24T03:09:22;22.58;;;8.27;;
52798;SDS011;38667;42.872;74.622;2023-04-24T03:11:48;18.60;;;7.22;;
52798;SDS011;38667;42.872;74.622;2023-04-24T03:14:15;18.08;;;7.32;;
52798;SDS011;38667;42.872;74.622;2023-04-24T03:16:41;14.80;;;6.57;;
52798;SDS011;38667;42.872;74.622;2023-04-24T03:19:07;18.58;;;6.38;;
52798;SDS011;38667;42.872;74.622;2023-04-24T03:21:34;13.77;;;5.65;;
52798;SDS011;38667;42.872;74.622;2023-04-24T03:24:00;14.25;;;5.45;;
52798;SDS011;38667;42.872;74.622;2023-04-24T03:26:28;17.20;;;5.00;;
52798;SDS011;38667;42.872;74.622;2023-04-24T03:28:54;13.52;;;4.72;;
52798;SDS011;38667;42.872;74.622;2023-04-24T03:31:21;12.32;;;4.50;;
52798;SDS011;38667;42.872;74.622;2023-04-24T03:33:47;11.32;;;4.80;;
52798;SDS011;38667;42.872;74.622;2023-04-24T03:36:13;8.77;;;4.20;;
52798;SDS011;38667;42.872;74.622;2023-04-24T03:38:39;14.63;;;4.63;;
52798;SDS011;38667;42.872;74.622;2023-04-24T03:41:06;9.52;;;4.40;;
52798;SDS011;38667;42.872;74.622;2023-04-24T03:43:33;11.27;;;4.38;;
52798;SDS011;38667;42.872;74.622;2023-04-24T03:46:00;10.52;;;3.70;;
52798;SDS011;38667;42.872;74.622;2023-04-24T03:48:26;12.98;;;4.25;;
52798;SDS011;38667;42.872;74.622;2023-04-24T03:50:53;9.98;;;3.85;;
52798;SDS011;38667;42.872;74.622;2023-04-24T03:53:19;14.35;;;4.20;;
52798;SDS011;38667;42.872;74.622;2023-04-24T03:55:45;16.55;;;3.75;;
52798;SDS011;38667;42.872;74.622;2023-04-24T03:58:12;11.40;;;3.30;;
52798;SDS011;38667;42.872;74.622;2023-04-24T04:00:40;13.02;;;3.70;;
52798;SDS011;38667;42.872;74.622;2023-04-24T04:03:06;6.60;;;3.35;;
52798;SDS011;38667;42.872;74.622;2023-04-24T04:05:33;12.13;;;3.50;;
52798;SDS011;38667;42.872;74.622;2023-04-24T04:07:59;6.07;;;2.78;;
52798;SDS011;38667;42.872;74.622;2023-04-24T04:10:25;7.50;;;2.67;;
52798;SDS011;38667;42.872;74.622;2023-04-24T04:12:52;8.23;;;3.28;;
52798;SDS011;38667;42.872;74.622;2023-04-24T04:15:18;8.45;;;2.85;;
52798;SDS011;38667;42.872;74.622;2023-04-24T04:17:46;6.22;;;2.70;;
52798;SDS011;38667;42.872;74.622;2023-04-24T04:20:12;10.50;;;3.15;;
52798;SDS011;38667;42.872;74.622;2023-04-24T04:22:38;14.20;;;3.28;;
52798;SDS011;38667;42.872;74.622;2023-04-24T04:25:05;16.33;;;3.47;;
52798;SDS011;38667;42.872;74.622;2023-04-24T04:27:32;8.45;;;2.95;;
52798;SDS011;38667;42.872;74.622;2023-04-24T04:29:58;10.88;;;3.20;;
52798;SDS011;38667;42.872;74.622;2023-04-24T04:32:24;6.50;;;2.40;;
52798;SDS011;38667;42.872;74.622;2023-04-24T04:34:52;5.47;;;2.85;;
52798;SDS011;38667;42.872;74.622;2023-04-24T04:37:18;10.90;;;2.90;;
52798;SDS011;38667;42.872;74.622;2023-04-24T04:39:45;9.45;;;3.20;;
52798;SDS011;38667;42.872;74.622;2023-04-24T04:42:11;11.50;;;4.43;;
52798;SDS011;38667;42.872;74.622;2023-04-24T04:44:37;10.23;;;3.75;;
52798;SDS011;38667;42.872;74.622;2023-04-24T04:47:04;10.98;;;4.30;;
52798;SDS011;38667;42.872;74.622;2023-04-24T04:49:30;17.00;;;5.18;;
52798;SDS011;38667;42.872;74.622;2023-04-24T04:51:58;14.68;;;4.03;;
52798;SDS011;38667;42.872;74.622;2023-04-24T04:54:24;11.45;;;3.88;;
52798;SDS011;38667;42.872;74.622;2023-04-24T04:56:51;16.42;;;4.13;;
52798;SDS011;38667;42.872;74.622;2023-04-24T04:59:17;19.10;;;5.45;;
52798;SDS011;38667;42.872;74.622;2023-04-24T05:01:43;26.33;;;6.85;;
52798;SDS011;38667;42.872;74.622;2023-04-24T05:04:10;27.02;;;7.10;;
52798;SDS011;38667;42.872;74.622;2023-04-24T05:06:36;22.95;;;6.50;;
52798;SDS011;38667;42.872;74.622;2023-04-24T05:09:04;18.02;;;5.72;;
52798;SDS011;38667;42.872;74.622;2023-04-24T05:11:30;11.75;;;4.40;;
52798;SDS011;38667;42.872;74.622;2023-04-24T05:13:57;15.98;;;5.28;;
52798;SDS011;38667;42.872;74.622;2023-04-24T05:16:23;18.05;;;5.25;;
52798;SDS011;38667;42.872;74.622;2023-04-24T05:18:49;25.15;;;5.65;;
52798;SDS011;38667;42.872;74.622;2023-04-24T05:21:15;11.13;;;3.85;;
52798;SDS011;38667;42.872;74.622;2023-04-24T05:23:42;14.43;;;4.45;;
52798;SDS011;38667;42.872;74.622;2023-04-24T05:26:10;14.85;;;4.35;;
52798;SDS011;38667;42.872;74.622;2023-04-24T05:28:36;15.65;;;5.70;;
52798;SDS011;38667;42.872;74.622;2023-04-24T05:31:02;18.02;;;5.32;;
52798;SDS011;38667;42.872;74.622;2023-04-24T05:33:29;16.92;;;4.85;;
52798;SDS011;38667;42.872;74.622;2023-04-24T05:35:55;28.83;;;4.97;;
52798;SDS011;38667;42.872;74.622;2023-04-24T05:38:21;14.55;;;4.82;;
52798;SDS011;38667;42.872;74.622;2023-04-24T05:40:48;22.48;;;5.80;;
52798;SDS011;38667;42.872;74.622;2023-04-24T05:43:16;17.98;;;6.05;;
52798;SDS011;38667;42.872;74.622;2023-04-24T05:45:42;24.90;;;6.38;;
52798;SDS011;38667;42.872;74.622;2023-04-24T05:48:08;15.27;;;6.10;;
52798;SDS011;38667;42.872;74.622;2023-04-24T05:50:35;36.33;;;7.25;;
52798;SDS011;38667;42.872;74.622;2023-04-24T05:53:01;18.63;;;7.03;;
52798;SDS011;38667;42.872;74.622;2023-04-24T05:55:27;18.58;;;6.90;;
52798;SDS011;38667;42.872;74.622;2023-04-24T05:57:54;17.08;;;6.55;;
52798;SDS011;38667;42.872;74.622;2023-04-24T06:00:21;18.13;;;6.03;;
52798;SDS011;38667;42.872;74.622;2023-04-24T06:02:48;14.93;;;5.45;;
52798;SDS011;38667;42.872;74.622;2023-04-24T06:05:15;12.45;;;4.80;;
52798;SDS011;38667;42.872;74.622;2023-04-24T06:07:41;12.25;;;5.43;;
52798;SDS011;38667;42.872;74.622;2023-04-24T06:10:08;12.32;;;4.90;;
52798;SDS011;38667;42.872;74.622;2023-04-24T06:12:35;13.23;;;4.47;;
52798;SDS011;38667;42.872;74.622;2023-04-24T06:15:02;12.55;;;4.60;;
52798;SDS011;38667;42.872;74.622;2023-04-24T06:17:30;14.80;;;4.57;;
52798;SDS011;38667;42.872;74.622;2023-04-24T06:19:56;16.50;;;4.07;;
52798;SDS011;38667;42.872;74.622;2023-04-24T06:22:23;11.30;;;3.60;;
52798;SDS011;38667;42.872;74.622;2023-04-24T06:24:49;14.43;;;4.13;;
52798;SDS011;38667;42.872;74.622;2023-04-24T06:27:16;15.40;;;3.00;;
52798;SDS011;38667;42.872;74.622;2023-04-24T06:29:42;10.07;;;3.28;;
52798;SDS011;38667;42.872;74.622;2023-04-24T06:32:08;8.27;;;3.88;;
52798;SDS011;38667;42.872;74.622;2023-04-24T06:34:36;7.10;;;3.13;;
52798;SDS011;38667;42.872;74.622;2023-04-24T06:37:02;11.50;;;3.47;;
52798;SDS011;38667;42.872;74.622;2023-04-24T06:39:28;10.07;;;3.30;;
52798;SDS011;38667;42.872;74.622;2023-04-24T06:41:55;12.82;;;3.30;;
52798;SDS011;38667;42.872;74.622;2023-04-24T06:44:21;13.23;;;3.38;;
52798;SDS011;38667;42.872;74.622;2023-04-24T06:46:47;14.48;;;3.20;;
52798;SDS011;38667;42.872;74.622;2023-04-24T06:49:14;8.80;;;2.80;;
52798;SDS011;38667;42.872;74.622;2023-04-24T06:51:42;37.95;;;4.05;;
52798;SDS011;38667;42.872;74.622;2023-04-24T06:54:08;12.13;;;3.65;;
52798;SDS011;38667;42.872;74.622;2023-04-24T06:56:34;13.65;;;3.10;;
52798;SDS011;38667;42.872;74.622;2023-04-24T06:59:01;20.95;;;2.97;;
52798;SDS011;38667;42.872;74.622;2023-04-24T07:01:27;6.95;;;2.63;;
52798;SDS011;38667;42.872;74.622;2023-04-24T07:03:53;13.32;;;2.45;;
52798;SDS011;38667;42.872;74.622;2023-04-24T07:06:19;10.20;;;2.90;;
52798;SDS011;38667;42.872;74.622;2023-04-24T07:08:47;12.35;;;3.40;;
52798;SDS011;38667;42.872;74.622;2023-04-24T07:11:14;8.02;;;2.78;;
52798;SDS011;38667;42.872;74.622;2023-04-24T07:13:40;8.23;;;3.10;;
52798;SDS011;38667;42.872;74.622;2023-04-24T07:16:06;19.48;;;3.97;;
52798;SDS011;38667;42.872;74.622;2023-04-24T07:18:33;14.45;;;3.70;;
52798;SDS011;38667;42.872;74.622;2023-04-24T07:21:00;14.70;;;4.47;;
52798;SDS011;38667;42.872;74.622;2023-04-24T07:23:26;13.55;;;3.95;;
52798;SDS011;38667;42.872;74.622;2023-04-24T07:25:54;5.55;;;2.58;;
52798;SDS011;38667;42.872;74.622;2023-04-24T07:28:20;10.43;;;3.53;;
52798;SDS011;38667;42.872;74.622;2023-04-24T07:30:47;23.17;;;3.60;;
52798;SDS011;38667;42.872;74.622;2023-04-24T07:33:13;8.13;;;2.83;;
52798;SDS011;38667;42.872;74.622;2023-04-24T07:35:39;8.85;;;3.70;;
52798;SDS011;38667;42.872;74.622;2023-04-24T07:38:06;9.80;;;3.60;;
52798;SDS011;38667;42.872;74.622;2023-04-24T07:40:32;19.27;;;4.18;;
52798;SDS011;38667;42.872;74.622;2023-04-24T07:43:00;14.35;;;4.03;;
52798;SDS011;38667;42.872;74.622;2023-04-24T07:45:26;11.43;;;3.67;;
52798;SDS011;38667;42.872;74.622;2023-04-24T07:47:52;16.80;;;3.50;;
52798;SDS011;38667;42.872;74.622;2023-04-24T07:50:19;15.25;;;3.30;;
52798;SDS011;38667;42.872;74.622;2023-04-24T07:52:45;14.73;;;3.70;;
52798;SDS011;38667;42.872;74.622;2023-04-24T07:55:12;14.32;;;2.90;;
52798;SDS011;38667;42.872;74.622;2023-04-24T07:57:38;9.73;;;2.80;;
52798;SDS011;38667;42.872;74.622;2023-04-24T08:00:07;12.45;;;3.17;;
52798;SDS011;38667;42.872;74.622;2023-04-24T08:02:33;9.82;;;2.78;;
52798;SDS011;38667;42.872;74.622;2023-04-24T08:05:00;6.97;;;2.47;;
52798;SDS011;38667;42.872;74.622;2023-04-24T08:07:26;11.05;;;2.85;;
52798;SDS011;38667;42.872;74.622;2023-04-24T08:09:52;17.83;;;3.10;;
52798;SDS011;38667;42.872;74.622;2023-04-24T08:12:19;5.82;;;2.35;;
52798;SDS011;38667;42.872;74.622;2023-04-24T08:14:45;12.80;;;2.50;;
52798;SDS011;38667;42.872;74.622;2023-04-24T08:17:13;8.40;;;2.75;;
52798;SDS011;38667;42.872;74.622;2023-04-24T08:19:39;5.97;;;2.50;;
52798;SDS011;38667;42.872;74.622;2023-04-24T08:22:06;9.30;;;3.40;;
52798;SDS011;38667;42.872;74.622;2023-04-24T08:24:32;8.18;;;2.53;;
52798;SDS011;38667;42.872;74.622;2023-04-24T08:26:58;6.75;;;2.72;;
52798;SDS011;38667;42.872;74.622;2023-04-24T08:29:25;13.23;;;2.95;;
52798;SDS011;38667;42.872;74.622;2023-04-24T08:31:51;9.20;;;2.33;;
52798;SDS011;38667;42.872;74.622;2023-04-24T08:34:19;8.25;;;2.50;;
52798;SDS011;38667;42.872;74.622;2023-04-24T08:36:45;8.38;;;2.67;;
52798;SDS011;38667;42.872;74.622;2023-04-24T08:39:11;11.13;;;2.70;;
52798;SDS011;38667;42.872;74.622;2023-04-24T08:41:38;7.63;;;2.80;;
52798;SDS011;38667;42.872;74.622;2023-04-24T08:44:06;7.80;;;2.45;;
52798;SDS011;38667;42.872;74.622;2023-04-24T08:46:33;13.85;;;2.50;;
52798;SDS011;38667;42.872;74.622;2023-04-24T08:48:59;10.20;;;2.60;;
52798;SDS011;38667;42.872;74.622;2023-04-24T08:51:28;12.35;;;2.75;;
52798;SDS011;38667;42.872;74.622;2023-04-24T08:53:56;11.25;;;2.45;;
52798;SDS011;38667;42.872;74.622;2023-04-24T08:56:23;8.75;;;2.55;;
52798;SDS011;38667;42.872;74.622;2023-04-24T08:58:50;18.88;;;2.42;;
52798;SDS011;38667;42.872;74.622;2023-04-24T09:01:16;5.75;;;2.40;;
52798;SDS011;38667;42.872;74.622;2023-04-24T09:03:44;7.93;;;2.53;;
52798;SDS011;38667;42.872;74.622;2023-04-24T09:06:11;8.70;;;2.00;;
52798;SDS011;38667;42.872;74.622;2023-04-24T09:08:39;7.90;;;2.20;;
52798;SDS011;38667;42.872;74.622;2023-04-24T09:11:08;11.50;;;3.35;;
52798;SDS011;38667;42.872;74.622;2023-04-24T09:13:35;8.57;;;2.85;;
52798;SDS011;38667;42.872;74.622;2023-04-24T09:16:01;11.80;;;3.20;;
52798;SDS011;38667;42.872;74.622;2023-04-24T09:18:28;8.52;;;3.25;;
52798;SDS011;38667;42.872;74.622;2023-04-24T09:20:57;12.05;;;3.20;;
52798;SDS011;38667;42.872;74.622;2023-04-24T09:23:25;9.45;;;2.95;;
52798;SDS011;38667;42.872;74.622;2023-04-24T09:25:55;8.60;;;3.08;;
52798;SDS011;38667;42.872;74.622;2023-04-24T09:28:25;12.45;;;3.28;;
52798;SDS011;38667;42.872;74.622;2023-04-24T09:31:01;20.05;;;3.97;;
52798;SDS011;38667;42.872;74.622;2023-04-24T09:33:29;16.02;;;3.85;;
52798;SDS011;38667;42.872;74.622;2023-04-24T09:35:55;19.23;;;3.90;;
52798;SDS011;38667;42.872;74.622;2023-04-24T09:38:24;20.20;;;3.78;;
52798;SDS011;38667;42.872;74.622;2023-04-24T09:41:00;13.52;;;3.60;;
52798;SDS011;38667;42.872;74.622;2023-04-24T09:43:27;15.98;;;3.85;;
52798;SDS011;38667;42.872;74.622;2023-04-24T09:45:55;19.67;;;3.92;;
52798;SDS011;38667;42.872;74.622;2023-04-24T09:48:29;14.32;;;3.65;;
52798;SDS011;38667;42.872;74.622;2023-04-24T09:50:56;12.43;;;3.33;;
52798;SDS011;38667;42.872;74.622;2023-04-24T09:53:23;17.15;;;3.45;;
52798;SDS011;38667;42.872;74.622;2023-04-24T09:55:50;12.98;;;3.95;;
52798;SDS011;38667;42.872;74.622;2023-04-24T09:58:18;19.58;;;3.75;;
52798;SDS011;38667;42.872;74.622;2023-04-24T10:00:49;11.40;;;3.40;;
52798;SDS011;38667;42.872;74.622;2023-04-24T10:03:18;16.30;;;3.53;;
52798;SDS011;38667;42.872;74.622;2023-04-24T10:05:45;13.27;;;3.70;;
52798;SDS011;38667;42.872;74.622;2023-04-24T10:08:12;18.70;;;3.90;;
52798;SDS011;38667;42.872;74.622;2023-04-24T10:10:39;15.63;;;3.88;;
52798;SDS011;38667;42.872;74.622;2023-04-24T10:13:06;19.95;;;4.63;;
52798;SDS011;38667;42.872;74.622;2023-04-24T10:15:35;13.85;;;3.83;;
52798;SDS011;38667;42.872;74.622;2023-04-24T10:18:02;22.15;;;4.07;;
52798;SDS011;38667;42.872;74.622;2023-04-24T10:20:30;23.73;;;4.38;;
52798;SDS011;38667;42.872;74.622;2023-04-24T10:22:57;19.98;;;4.30;;
52798;SDS011;38667;42.872;74.622;2023-04-24T10:25:25;16.65;;;4.35;;
52798;SDS011;38667;42.872;74.622;2023-04-24T10:27:53;13.68;;;4.57;;
52798;SDS011;38667;42.872;74.622;2023-04-24T10:30:19;21.75;;;4.18;;
52798;SDS011;38667;42.872;74.622;2023-04-24T10:32:47;19.98;;;4.00;;
52798;SDS011;38667;42.872;74.622;2023-04-24T10:35:14;22.00;;;4.10;;
52798;SDS011;38667;42.872;74.622;2023-04-24T10:37:43;15.10;;;3.85;;
52798;SDS011;38667;42.872;74.622;2023-04-24T10:40:11;24.15;;;4.13;;
52798;SDS011;38667;42.872;74.622;2023-04-24T10:42:42;13.18;;;3.45;;
52798;SDS011;38667;42.872;74.622;2023-04-24T10:45:16;15.20;;;3.67;;
52798;SDS011;38667;42.872;74.622;2023-04-24T10:47:42;24.08;;;3.60;;
52798;SDS011;38667;42.872;74.622;2023-04-24T10:50:17;15.23;;;3.90;;
52798;SDS011;38667;42.872;74.622;2023-04-24T10:52:44;18.58;;;3.67;;
52798;SDS011;38667;42.872;74.622;2023-04-24T10:55:10;12.75;;;2.90;;
52798;SDS011;38667;42.872;74.622;2023-04-24T10:57:38;15.68;;;3.33;;
52798;SDS011;38667;42.872;74.622;2023-04-24T11:00:15;22.65;;;3.60;;
52798;SDS011;38667;42.872;74.622;2023-04-24T11:02:45;19.60;;;3.30;;
52798;SDS011;38667;42.872;74.622;2023-04-24T11:05:12;18.20;;;3.70;;
52798;SDS011;38667;42.872;74.622;2023-04-24T11:10:40;20.45;;;3.85;;
52798;SDS011;38667;42.872;74.622;2023-04-24T11:13:09;20.63;;;3.67;;
52798;SDS011;38667;42.872;74.622;2023-04-24T11:15:35;21.20;;;4.23;;
52798;SDS011;38667;42.872;74.622;2023-04-24T11:18:01;20.17;;;3.90;;
52798;SDS011;38667;42.872;74.622;2023-04-24T11:20:28;21.45;;;4.38;;
52798;SDS011;38667;42.872;74.622;2023-04-24T11:22:54;14.48;;;3.67;;
52798;SDS011;38667;42.872;74.622;2023-04-24T11:25:22;18.60;;;3.60;;
52798;SDS011;38667;42.872;74.622;2023-04-24T11:27:49;13.18;;;3.65;;
52798;SDS011;38667;42.872;74.622;2023-04-24T11:30:17;13.95;;;3.25;;
52798;SDS011;38667;42.872;74.622;2023-04-24T11:32:47;17.85;;;3.92;;
52798;SDS011;38667;42.872;74.622;2023-04-24T11:35:16;14.95;;;3.67;;
52798;SDS011;38667;42.872;74.622;2023-04-24T11:37:45;10.70;;;4.00;;
52798;SDS011;38667;42.872;74.622;2023-04-24T11:40:12;22.52;;;4.53;;
52798;SDS011;38667;42.872;74.622;2023-04-24T11:42:41;19.75;;;3.78;;
52798;SDS011;38667;42.872;74.622;2023-04-24T11:45:09;17.15;;;3.63;;
52798;SDS011;38667;42.872;74.622;2023-04-24T11:47:36;14.45;;;3.42;;
52798;SDS011;38667;42.872;74.622;2023-04-24T11:50:04;16.83;;;3.40;;
52798;SDS011;38667;42.872;74.622;2023-04-24T11:52:32;13.02;;;3.83;;
52798;SDS011;38667;42.872;74.622;2023-04-24T11:55:01;17.85;;;3.65;;
52798;SDS011;38667;42.872;74.622;2023-04-24T11:57:28;15.32;;;3.47;;
52798;SDS011;38667;42.872;74.622;2023-04-24T11:59:56;15.85;;;3.60;;
52798;SDS011;38667;42.872;74.622;2023-04-24T12:02:22;18.95;;;4.90;;
52798;SDS011;38667;42.872;74.622;2023-04-24T12:04:49;14.38;;;3.63;;
52798;SDS011;38667;42.872;74.622;2023-04-24T12:07:16;15.90;;;3.95;;
52798;SDS011;38667;42.872;74.622;2023-04-24T12:09:43;17.05;;;3.53;;
52798;SDS011;38667;42.872;74.622;2023-04-24T12:12:10;13.68;;;3.83;;
52798;SDS011;38667;42.872;74.622;2023-04-24T12:17:26;15.90;;;3.58;;
52798;SDS011;38667;42.872;74.622;2023-04-24T12:19:57;11.88;;;3.38;;
52798;SDS011;38667;42.872;74.622;2023-04-24T12:22:24;16.95;;;2.97;;
52798;SDS011;38667;42.872;74.622;2023-04-24T12:24:57;11.23;;;2.47;;
52798;SDS011;38667;42.872;74.622;2023-04-24T12:27:24;14.52;;;2.45;;
52798;SDS011;38667;42.872;74.622;2023-04-24T12:29:51;11.00;;;2.05;;
52798;SDS011;38667;42.872;74.622;2023-04-24T12:32:20;11.60;;;2.80;;
52798;SDS011;38667;42.872;74.622;2023-04-24T12:34:46;11.30;;;2.88;;
52798;SDS011;38667;42.872;74.622;2023-04-24T12:37:12;11.32;;;2.38;;
52798;SDS011;38667;42.872;74.622;2023-04-24T12:39:38;13.45;;;2.60;;
52798;SDS011;38667;42.872;74.622;2023-04-24T12:42:09;14.77;;;3.17;;
52798;SDS011;38667;42.872;74.622;2023-04-24T12:44:36;14.60;;;2.92;;
52798;SDS011;38667;42.872;74.622;2023-04-24T12:47:03;26.77;;;4.20;;
52798;SDS011;38667;42.872;74.622;2023-04-24T12:49:31;17.55;;;3.50;;
52798;SDS011;38667;42.872;74.622;2023-04-24T12:51:57;21.38;;;3.78;;
52798;SDS011;38667;42.872;74.622;2023-04-24T12:54:23;15.43;;;2.72;;
52798;SDS011;38667;42.872;74.622;2023-04-24T12:56:50;14.65;;;3.45;;
52798;SDS011;38667;42.872;74.622;2023-04-24T12:59:16;13.35;;;3.70;;
52798;SDS011;38667;42.872;74.622;2023-04-24T13:01:43;8.52;;;2.00;;
52798;SDS011;38667;42.872;74.622;2023-04-24T13:04:09;19.65;;;2.63;;
52798;SDS011;38667;42.872;74.622;2023-04-24T13:06:37;4.95;;;2.30;;
52798;SDS011;38667;42.872;74.622;2023-04-24T13:09:03;5.05;;;2.50;;
52798;SDS011;38667;42.872;74.622;2023-04-24T13:11:30;10.00;;;2.78;;
52798;SDS011;38667;42.872;74.622;2023-04-24T13:13:56;3.50;;;1.80;;
52798;SDS011;38667;42.872;74.622;2023-04-24T13:16:22;4.72;;;2.50;;
52798;SDS011;38667;42.872;74.622;2023-04-24T13:18:49;5.90;;;2.17;;
52798;SDS011;38667;42.872;74.622;2023-04-24T13:21:15;4.78;;;2.13;;
52798;SDS011;38667;42.872;74.622;2023-04-24T13:23:43;5.85;;;1.88;;
52798;SDS011;38667;42.872;74.622;2023-04-24T13:26:09;2.58;;;1.77;;
52798;SDS011;38667;42.872;74.622;2023-04-24T13:28:35;6.32;;;2.60;;
52798;SDS011;38667;42.872;74.622;2023-04-24T13:31:02;9.63;;;2.72;;
52798;SDS011;38667;42.872;74.622;2023-04-24T13:33:28;7.78;;;3.22;;
52798;SDS011;38667;42.872;74.622;2023-04-24T13:35:55;7.97;;;2.97;;
52798;SDS011;38667;42.872;74.622;2023-04-24T13:38:21;6.45;;;2.50;;
52798;SDS011;38667;42.872;74.622;2023-04-24T13:40:49;5.60;;;2.50;;
52798;SDS011;38667;42.872;74.622;2023-04-24T13:43:15;4.72;;;2.35;;
52798;SDS011;38667;42.872;74.622;2023-04-24T13:45:41;9.85;;;2.90;;
52798;SDS011;38667;42.872;74.622;2023-04-24T13:48:08;8.30;;;3.38;;
52798;SDS011;38667;42.872;74.622;2023-04-24T13:50:34;11.68;;;3.03;;
52798;SDS011;38667;42.872;74.622;2023-04-24T13:53:01;7.05;;;2.67;;
52798;SDS011;38667;42.872;74.622;2023-04-24T13:55:28;7.50;;;2.53;;
52798;SDS011;38667;42.872;74.622;2023-04-24T13:57:56;5.53;;;2.78;;
52798;SDS011;38667;42.872;74.622;2023-04-24T14:00:22;6.78;;;2.40;;
52798;SDS011;38667;42.872;74.622;2023-04-24T14:02:48;5.78;;;2.47;;
52798;SDS011;38667;42.872;74.622;2023-04-24T14:05:15;3.85;;;2.17;;
52798;SDS011;38667;42.872;74.622;2023-04-24T14:07:41;5.00;;;2.40;;
52798;SDS011;38667;42.872;74.622;2023-04-24T14:10:08;21.05;;;2.50;;
52798;SDS011;38667;42.872;74.622;2023-04-24T14:12:34;4.82;;;2.58;;
52798;SDS011;38667;42.872;74.622;2023-04-24T14:15:02;7.00;;;2.45;;
52798;SDS011;38667;42.872;74.622;2023-04-24T14:17:29;8.35;;;2.50;;
52798;SDS011;38667;42.872;74.622;2023-04-24T14:19:56;9.27;;;2.72;;
52798;SDS011;38667;42.872;74.622;2023-04-24T14:22:22;6.63;;;3.13;;
52798;SDS011;38667;42.872;74.622;2023-04-24T14:24:48;6.15;;;2.92;;
52798;SDS011;38667;42.872;74.622;2023-04-24T14:27:15;7.82;;;3.30;;
52798;SDS011;38667;42.872;74.622;2023-04-24T14:29:41;11.73;;;4.15;;
52798;SDS011;38667;42.872;74.622;2023-04-24T14:32:09;8.45;;;4.25;;
52798;SDS011;38667;42.872;74.622;2023-04-24T14:34:35;10.93;;;3.97;;
52798;SDS011;38667;42.872;74.622;2023-04-24T14:37:01;13.43;;;4.22;;
52798;SDS011;38667;42.872;74.622;2023-04-24T14:39:28;7.13;;;4.03;;
52798;SDS011;38667;42.872;74.622;2023-04-24T14:41:54;8.60;;;4.70;;